Bettendorf, IA (52722)

11:52 AM CST on January 26, 2015 (GMT -0600)
Central Bettendorf | Change Station
CLOSE
Current Station
Personal Weather Station
Location: Bettendorf, IA
Elevation: 665 ft
Nearby Weather Stations
Active Advisory: Special Statement Active Notice: Local Storm Report

Elev 665 ft 41.53 °N, 90.50 °W | Updated 2 seconds ago

Overcast
Overcast
27.0 °F
Feels Like 27 °F
N
2.5
Wind Variable Wind from SE
Gusts 2.7 mph

Today
High -- | Low -- °F
--% Chance of Precip.
Yesterday
High -- | Low -- °F
Precip. -- in
7:19 AM 5:09 PM
Waxing Crescent, 45% visible
Pressure 29.86 in
Visibility 7.0 miles
Clouds Mostly Cloudy 2800 ft
Overcast 3300 ft
Windchill 27 °F
Dew Point 13 °F
Humidity 55%
Rainfall 0.00 in
Snow Depth Not available.
UV 1 out of 12
Pollen .10 out of 12
Air Quality Not available.
Flu Activity Not available.
SPECI KDVN 261732Z AUTO 17011KT 7SM BKN028 OVC033 M04/M06 A2986 RMK AO2 SNE05 P0000 T10391061

More Conditions Fewer Conditions

Pressure 29.86 in
Visibility 7.0 miles
Clouds Mostly Cloudy 2800 ft
Overcast 3300 ft
Windchill 27 °F
Dew Point 13 °F
Humidity 55%
Rainfall 0.00 in
Snow Depth Not available.
UV 1 out of 12
Pollen .10 out of 12
Air Quality Not available.
Flu Activity Not available.
SPECI KDVN 261732Z AUTO 17011KT 7SM BKN028 OVC033 M04/M06 A2986 RMK AO2 SNE05 P0000 T10391061

More Conditions Fewer Conditions

10-Day Weather Forecast

Almanac

Astronomy

Jan. 26, 2015 Rise Set
Actual Time
Civil Twilight
Nautical Twilight
Astronomical Twilight
Moon
Length of Visible Light
Length of Day
Tomorrow will be .
, % of the Moon is Illuminated

Today's Extremes

State Highs State Lows

Community

WunderPhotos

Upload Photos

1,790,301 photos uploaded!

WunderBlogs® & News

Nearby

Air Quality

  Air Quality AQ Index Pollutant
Not available.

Snow Depth

Station Depth Elevation

Earthquake Activity

City Distance Mag. Time & Date
Minimum magnitude displayed is 2.5.

Coastal Water Temperatures

Place Temperature

Nearby Weather Stations